sensor_id;sensor_type;location;lat;lon;timestamp;pressure;altitude;pressure_sealevel;temperature;humidity
78717;BME280;68045;50.042;14.432;2023-08-07T00:00:53;97231.53;;;13.67;85.31
78717;BME280;68045;50.042;14.432;2023-08-07T00:05:07;97222.19;;;13.80;84.77
78717;BME280;68045;50.042;14.432;2023-08-07T00:09:08;97221.75;;;13.67;85.41
78717;BME280;68045;50.042;14.432;2023-08-07T00:13:09;97229.47;;;13.59;86.43
78717;BME280;68045;50.042;14.432;2023-08-07T00:17:10;97212.06;;;13.48;86.64
78717;BME280;68045;50.042;14.432;2023-08-07T00:21:11;97216.50;;;13.57;86.61
78717;BME280;68045;50.042;14.432;2023-08-07T00:25:12;97230.84;;;13.56;85.89
78717;BME280;68045;50.042;14.432;2023-08-07T00:29:13;97220.75;;;13.58;85.98
78717;BME280;68045;50.042;14.432;2023-08-07T00:33:14;97229.78;;;13.52;85.82
78717;BME280;68045;50.042;14.432;2023-08-07T00:37:15;97213.53;;;13.64;86.00
78717;BME280;68045;50.042;14.432;2023-08-07T00:41:18;97210.13;;;13.58;85.88
78717;BME280;68045;50.042;14.432;2023-08-07T00:45:20;97243.50;;;13.64;85.10
78717;BME280;68045;50.042;14.432;2023-08-07T00:49:21;97212.75;;;13.63;84.69
78717;BME280;68045;50.042;14.432;2023-08-07T00:53:22;97217.72;;;13.75;84.46
78717;BME280;68045;50.042;14.432;2023-08-07T00:57:24;97224.13;;;13.69;84.40
78717;BME280;68045;50.042;14.432;2023-08-07T01:06:20;97232.00;;;13.79;83.81
78717;BME280;68045;50.042;14.432;2023-08-07T01:15:00;97226.47;;;13.76;83.80
78717;BME280;68045;50.042;14.432;2023-08-07T01:19:03;97227.53;;;13.74;83.81
78717;BME280;68045;50.042;14.432;2023-08-07T01:23:04;97228.75;;;13.87;83.64
78717;BME280;68045;50.042;14.432;2023-08-07T01:31:20;97241.81;;;13.79;83.33
78717;BME280;68045;50.042;14.432;2023-08-07T01:35:27;97242.81;;;13.88;82.91
78717;BME280;68045;50.042;14.432;2023-08-07T01:39:30;97261.16;;;13.84;83.22
78717;BME280;68045;50.042;14.432;2023-08-07T01:43:32;97265.41;;;13.80;83.56
78717;BME280;68045;50.042;14.432;2023-08-07T01:47:35;97263.22;;;13.92;83.43
78717;BME280;68045;50.042;14.432;2023-08-07T01:51:36;97267.44;;;13.93;83.41
78717;BME280;68045;50.042;14.432;2023-08-07T01:55:37;97270.50;;;13.77;83.95
78717;BME280;68045;50.042;14.432;2023-08-07T01:59:38;97266.00;;;13.72;84.63
78717;BME280;68045;50.042;14.432;2023-08-07T02:03:39;97268.66;;;13.67;85.23
78717;BME280;68045;50.042;14.432;2023-08-07T02:07:40;97278.25;;;13.63;85.84
78717;BME280;68045;50.042;14.432;2023-08-07T02:11:41;97268.44;;;13.63;86.02
78717;BME280;68045;50.042;14.432;2023-08-07T02:15:43;97263.16;;;13.58;86.58
78717;BME280;68045;50.042;14.432;2023-08-07T02:19:44;97275.63;;;13.53;86.35
78717;BME280;68045;50.042;14.432;2023-08-07T02:23:44;97274.06;;;13.52;86.86
78717;BME280;68045;50.042;14.432;2023-08-07T02:27:45;97277.53;;;13.47;87.30
78717;BME280;68045;50.042;14.432;2023-08-07T02:31:46;97277.53;;;13.47;87.58
78717;BME280;68045;50.042;14.432;2023-08-07T02:35:47;97283.66;;;13.42;88.07
78717;BME280;68045;50.042;14.432;2023-08-07T02:39:48;97275.75;;;13.32;88.64
78717;BME280;68045;50.042;14.432;2023-08-07T02:43:49;97282.66;;;13.33;89.39
78717;BME280;68045;50.042;14.432;2023-08-07T02:47:49;97285.28;;;13.33;89.13
78717;BME280;68045;50.042;14.432;2023-08-07T02:51:50;97285.81;;;13.35;89.21
78717;BME280;68045;50.042;14.432;2023-08-07T02:55:51;97281.84;;;13.33;89.33
78717;BME280;68045;50.042;14.432;2023-08-07T02:59:51;97291.41;;;13.29;88.89
78717;BME280;68045;50.042;14.432;2023-08-07T03:03:53;97289.25;;;13.31;89.76
78717;BME280;68045;50.042;14.432;2023-08-07T03:07:53;97296.47;;;13.25;90.22
78717;BME280;68045;50.042;14.432;2023-08-07T03:11:54;97297.22;;;13.31;90.09
78717;BME280;68045;50.042;14.432;2023-08-07T03:16:02;97285.03;;;13.30;89.90
78717;BME280;68045;50.042;14.432;2023-08-07T03:20:03;97295.63;;;13.30;89.84
78717;BME280;68045;50.042;14.432;2023-08-07T03:24:07;97293.81;;;13.25;90.05
78717;BME280;68045;50.042;14.432;2023-08-07T03:28:09;97294.06;;;13.24;90.08
78717;BME280;68045;50.042;14.432;2023-08-07T03:32:09;97304.66;;;13.24;90.44
78717;BME280;68045;50.042;14.432;2023-08-07T03:36:12;97301.47;;;13.16;90.72
78717;BME280;68045;50.042;14.432;2023-08-07T03:40:13;97302.28;;;13.22;90.13
78717;BME280;68045;50.042;14.432;2023-08-07T03:44:14;97309.97;;;13.24;90.10
78717;BME280;68045;50.042;14.432;2023-08-07T03:48:15;97309.19;;;13.18;89.95
78717;BME280;68045;50.042;14.432;2023-08-07T03:52:16;97315.78;;;13.10;90.53
78717;BME280;68045;50.042;14.432;2023-08-07T03:56:19;97316.06;;;13.14;90.46
78717;BME280;68045;50.042;14.432;2023-08-07T04:00:20;97312.63;;;13.08;90.44
78717;BME280;68045;50.042;14.432;2023-08-07T04:04:23;97308.91;;;13.09;89.75
78717;BME280;68045;50.042;14.432;2023-08-07T04:08:24;97317.13;;;13.13;90.19
78717;BME280;68045;50.042;14.432;2023-08-07T04:12:25;97322.72;;;13.11;90.47
78717;BME280;68045;50.042;14.432;2023-08-07T04:16:26;97334.63;;;13.09;90.75
78717;BME280;68045;50.042;14.432;2023-08-07T04:20:27;97326.16;;;13.12;90.72
78717;BME280;68045;50.042;14.432;2023-08-07T04:24:28;97337.53;;;13.07;91.20
78717;BME280;68045;50.042;14.432;2023-08-07T04:28:29;97342.28;;;13.10;90.19
78717;BME280;68045;50.042;14.432;2023-08-07T04:32:30;97341.25;;;13.06;90.49
78717;BME280;68045;50.042;14.432;2023-08-07T04:36:31;97342.84;;;13.12;89.95
78717;BME280;68045;50.042;14.432;2023-08-07T04:40:32;97337.53;;;13.12;90.38
78717;BME280;68045;50.042;14.432;2023-08-07T04:44:33;97333.53;;;13.15;90.45
78717;BME280;68045;50.042;14.432;2023-08-07T04:48:33;97345.22;;;13.14;90.34
78717;BME280;68045;50.042;14.432;2023-08-07T04:52:34;97344.97;;;13.05;91.15
78717;BME280;68045;50.042;14.432;2023-08-07T04:56:35;97345.22;;;13.09;90.10
78717;BME280;68045;50.042;14.432;2023-08-07T05:00:36;97347.06;;;13.18;89.54
78717;BME280;68045;50.042;14.432;2023-08-07T05:04:37;97345.47;;;13.12;90.53
78717;BME280;68045;50.042;14.432;2023-08-07T05:08:38;97350.78;;;13.12;90.28
78717;BME280;68045;50.042;14.432;2023-08-07T05:12:39;97357.94;;;13.22;89.79
78717;BME280;68045;50.042;14.432;2023-08-07T05:16:39;97379.66;;;13.14;89.81
78717;BME280;68045;50.042;14.432;2023-08-07T05:20:40;97379.66;;;13.24;90.33
78717;BME280;68045;50.042;14.432;2023-08-07T05:24:41;97379.66;;;13.24;90.81
78717;BME280;68045;50.042;14.432;2023-08-07T05:28:42;97381.22;;;13.30;90.25
78717;BME280;68045;50.042;14.432;2023-08-07T05:32:43;97387.59;;;13.34;89.08
78717;BME280;68045;50.042;14.432;2023-08-07T05:36:43;97388.09;;;13.46;89.52
78717;BME280;68045;50.042;14.432;2023-08-07T05:40:44;97391.53;;;13.47;89.34
78717;BME280;68045;50.042;14.432;2023-08-07T05:44:45;97391.03;;;13.40;89.86
78717;BME280;68045;50.042;14.432;2023-08-07T05:48:46;97386.47;;;13.51;89.39
78717;BME280;68045;50.042;14.432;2023-08-07T05:52:47;97401.59;;;13.50;88.78
78717;BME280;68045;50.042;14.432;2023-08-07T05:56:48;97408.19;;;13.58;88.73
78717;BME280;68045;50.042;14.432;2023-08-07T06:00:49;97404.25;;;13.50;90.02
78717;BME280;68045;50.042;14.432;2023-08-07T06:04:50;97405.53;;;13.58;89.79
78717;BME280;68045;50.042;14.432;2023-08-07T06:08:51;97413.19;;;13.69;89.09
78717;BME280;68045;50.042;14.432;2023-08-07T06:12:52;97418.78;;;13.63;89.09
78717;BME280;68045;50.042;14.432;2023-08-07T06:16:53;97425.91;;;13.78;88.35
78717;BME280;68045;50.042;14.432;2023-08-07T06:20:54;97437.28;;;13.83;87.86
78717;BME280;68045;50.042;14.432;2023-08-07T06:24:55;97432.22;;;13.92;87.26
78717;BME280;68045;50.042;14.432;2023-08-07T06:28:55;97431.69;;;13.85;88.35
78717;BME280;68045;50.042;14.432;2023-08-07T06:32:56;97436.16;;;13.94;87.16
78717;BME280;68045;50.042;14.432;2023-08-07T06:36:57;97442.22;;;14.10;87.27
78717;BME280;68045;50.042;14.432;2023-08-07T06:40:58;97449.88;;;14.17;86.26
78717;BME280;68045;50.042;14.432;2023-08-07T06:44:58;97446.19;;;14.13;85.93
78717;BME280;68045;50.042;14.432;2023-08-07T06:48:59;97450.88;;;14.31;85.60
78717;BME280;68045;50.042;14.432;2023-08-07T06:53:00;97452.94;;;14.39;85.18
78717;BME280;68045;50.042;14.432;2023-08-07T06:57:01;97449.94;;;14.56;84.59
78717;BME280;68045;50.042;14.432;2023-08-07T07:01:02;97466.94;;;14.55;84.09
78717;BME280;68045;50.042;14.432;2023-08-07T07:05:03;97472.91;;;14.26;84.74
78717;BME280;68045;50.042;14.432;2023-08-07T07:09:05;97476.16;;;14.18;85.41
78717;BME280;68045;50.042;14.432;2023-08-07T07:13:06;97479.59;;;14.19;86.00
78717;BME280;68045;50.042;14.432;2023-08-07T07:17:08;97497.34;;;14.23;86.13
78717;BME280;68045;50.042;14.432;2023-08-07T07:21:09;97503.19;;;14.25;85.60
78717;BME280;68045;50.042;14.432;2023-08-07T07:25:10;97507.34;;;14.42;85.93
78717;BME280;68045;50.042;14.432;2023-08-07T07:29:11;97507.28;;;14.57;84.56
78717;BME280;68045;50.042;14.432;2023-08-07T07:33:12;97525.75;;;14.82;83.66
78717;BME280;68045;50.042;14.432;2023-08-07T07:37:14;97517.75;;;14.88;82.92
78717;BME280;68045;50.042;14.432;2023-08-07T07:41:17;97535.81;;;15.25;81.80
78717;BME280;68045;50.042;14.432;2023-08-07T07:45:19;97544.28;;;15.32;81.04
78717;BME280;68045;50.042;14.432;2023-08-07T07:49:20;97536.31;;;15.32;81.18
78717;BME280;68045;50.042;14.432;2023-08-07T07:53:21;97541.78;;;15.46;80.38
78717;BME280;68045;50.042;14.432;2023-08-07T07:57:21;97554.94;;;15.61;79.98
78717;BME280;68045;50.042;14.432;2023-08-07T08:01:22;97560.94;;;15.43;80.81
78717;BME280;68045;50.042;14.432;2023-08-07T08:05:24;97568.88;;;15.82;79.96
78717;BME280;68045;50.042;14.432;2023-08-07T08:09:24;97557.97;;;16.31;77.44
78717;BME280;68045;50.042;14.432;2023-08-07T08:13:26;97557.84;;;16.84;75.90
78717;BME280;68045;50.042;14.432;2023-08-07T08:17:27;97566.59;;;16.71;75.72
78717;BME280;68045;50.042;14.432;2023-08-07T08:21:27;97570.47;;;16.97;74.68
78717;BME280;68045;50.042;14.432;2023-08-07T08:25:28;97580.22;;;16.64;75.17
78717;BME280;68045;50.042;14.432;2023-08-07T08:29:29;97583.75;;;17.02;73.74
78717;BME280;68045;50.042;14.432;2023-08-07T08:33:30;97588.41;;;17.11;72.65
78717;BME280;68045;50.042;14.432;2023-08-07T08:37:31;97586.16;;;17.88;70.06
78717;BME280;68045;50.042;14.432;2023-08-07T08:41:32;97603.56;;;17.67;69.70
78717;BME280;68045;50.042;14.432;2023-08-07T08:45:34;97608.84;;;17.91;69.77
78717;BME280;68045;50.042;14.432;2023-08-07T08:49:46;97601.28;;;17.60;71.28
78717;BME280;68045;50.042;14.432;2023-08-07T08:53:47;97601.41;;;17.17;72.08
78717;BME280;68045;50.042;14.432;2023-08-07T08:57:50;97615.16;;;17.24;71.18
78717;BME280;68045;50.042;14.432;2023-08-07T09:01:51;97630.81;;;17.50;68.26
78717;BME280;68045;50.042;14.432;2023-08-07T09:05:54;97626.00;;;17.84;68.27
78717;BME280;68045;50.042;14.432;2023-08-07T09:09:56;97634.25;;;17.69;68.62
78717;BME280;68045;50.042;14.432;2023-08-07T09:13:57;97642.03;;;17.66;68.80
78717;BME280;68045;50.042;14.432;2023-08-07T09:18:00;97647.59;;;17.50;68.96
78717;BME280;68045;50.042;14.432;2023-08-07T09:22:03;97642.34;;;17.45;68.38
78717;BME280;68045;50.042;14.432;2023-08-07T09:26:05;97655.41;;;17.28;69.56
78717;BME280;68045;50.042;14.432;2023-08-07T09:30:07;97643.16;;;17.27;67.72
78717;BME280;68045;50.042;14.432;2023-08-07T09:34:11;97669.09;;;17.59;67.02
78717;BME280;68045;50.042;14.432;2023-08-07T09:38:14;97673.56;;;17.45;67.24
78717;BME280;68045;50.042;14.432;2023-08-07T09:42:16;97665.19;;;17.51;67.72
78717;BME280;68045;50.042;14.432;2023-08-07T09:46:17;97669.56;;;17.99;65.84
78717;BME280;68045;50.042;14.432;2023-08-07T09:50:18;97674.22;;;18.39;64.53
78717;BME280;68045;50.042;14.432;2023-08-07T09:54:18;97675.78;;;18.27;64.67
78717;BME280;68045;50.042;14.432;2023-08-07T09:58:19;97675.88;;;18.35;64.36
78717;BME280;68045;50.042;14.432;2023-08-07T10:02:20;97680.91;;;17.91;64.89
78717;BME280;68045;50.042;14.432;2023-08-07T10:06:22;97679.88;;;17.68;65.77
78717;BME280;68045;50.042;14.432;2023-08-07T10:10:23;97700.00;;;17.22;67.88
78717;BME280;68045;50.042;14.432;2023-08-07T10:14:26;97703.22;;;16.77;71.16
78717;BME280;68045;50.042;14.432;2023-08-07T10:18:27;97715.88;;;16.61;73.68
78717;BME280;68045;50.042;14.432;2023-08-07T10:22:30;97722.06;;;16.56;74.32
78717;BME280;68045;50.042;14.432;2023-08-07T10:26:37;97723.41;;;17.07;74.48
78717;BME280;68045;50.042;14.432;2023-08-07T10:30:40;97719.38;;;18.55;70.51
78717;BME280;68045;50.042;14.432;2023-08-07T10:34:43;97711.44;;;19.60;63.88
78717;BME280;68045;50.042;14.432;2023-08-07T10:38:50;97731.00;;;19.19;63.73
78717;BME280;68045;50.042;14.432;2023-08-07T10:43:12;97709.63;;;18.45;66.95
78717;BME280;68045;50.042;14.432;2023-08-07T10:47:14;97717.78;;;18.54;67.63
78717;BME280;68045;50.042;14.432;2023-08-07T10:51:17;97709.66;;;18.59;65.72
78717;BME280;68045;50.042;14.432;2023-08-07T10:55:18;97714.47;;;18.76;65.64
78717;BME280;68045;50.042;14.432;2023-08-07T10:59:18;97712.59;;;19.54;62.59
78717;BME280;68045;50.042;14.432;2023-08-07T11:03:26;97716.50;;;21.91;55.00
78717;BME280;68045;50.042;14.432;2023-08-07T11:07:29;97705.31;;;23.09;50.18
78717;BME280;68045;50.042;14.432;2023-08-07T11:11:40;97709.75;;;23.34;50.43
78717;BME280;68045;50.042;14.432;2023-08-07T11:15:41;97700.25;;;27.14;39.71
78717;BME280;68045;50.042;14.432;2023-08-07T11:19:43;97706.31;;;25.24;41.06
78717;BME280;68045;50.042;14.432;2023-08-07T11:23:44;97693.06;;;24.36;44.70
78717;BME280;68045;50.042;14.432;2023-08-07T11:27:45;97702.53;;;23.26;46.86
78717;BME280;68045;50.042;14.432;2023-08-07T11:31:46;97657.75;;;22.92;47.97
78717;BME280;68045;50.042;14.432;2023-08-07T11:35:47;97692.47;;;22.03;49.69
78717;BME280;68045;50.042;14.432;2023-08-07T11:39:48;97696.91;;;21.47;51.39
78717;BME280;68045;50.042;14.432;2023-08-07T11:43:49;97711.34;;;21.03;51.53
78717;BME280;68045;50.042;14.432;2023-08-07T11:47:50;97710.84;;;23.12;47.61
78717;BME280;68045;50.042;14.432;2023-08-07T11:51:51;97690.50;;;24.52;42.52
78717;BME280;68045;50.042;14.432;2023-08-07T11:55:55;97712.63;;;23.79;43.70
78717;BME280;68045;50.042;14.432;2023-08-07T11:59:58;97704.13;;;22.42;45.80
78717;BME280;68045;50.042;14.432;2023-08-07T12:08:07;97716.72;;;23.35;45.77
78717;BME280;68045;50.042;14.432;2023-08-07T12:12:08;97729.31;;;21.51;49.25
78717;BME280;68045;50.042;14.432;2023-08-07T12:16:13;97734.97;;;23.29;45.03
78717;BME280;68045;50.042;14.432;2023-08-07T12:20:16;97737.03;;;24.16;42.68
78717;BME280;68045;50.042;14.432;2023-08-07T12:24:17;97759.50;;;22.43;46.53
78717;BME280;68045;50.042;14.432;2023-08-07T12:28:18;97741.47;;;22.26;46.78
78717;BME280;68045;50.042;14.432;2023-08-07T12:32:19;97754.63;;;19.81;52.89
78717;BME280;68045;50.042;14.432;2023-08-07T12:36:20;97776.19;;;18.47;56.87
78717;BME280;68045;50.042;14.432;2023-08-07T12:40:21;97767.75;;;17.64;60.45
78717;BME280;68045;50.042;14.432;2023-08-07T12:44:23;97771.00;;;18.18;58.91
78717;BME280;68045;50.042;14.432;2023-08-07T12:48:24;97780.84;;;19.15;56.01
78717;BME280;68045;50.042;14.432;2023-08-07T12:52:27;97764.50;;;19.80;54.60
78717;BME280;68045;50.042;14.432;2023-08-07T12:56:27;97759.72;;;19.13;55.26
78717;BME280;68045;50.042;14.432;2023-08-07T13:00:28;97763.06;;;20.64;53.08
78717;BME280;68045;50.042;14.432;2023-08-07T13:04:29;97756.19;;;21.77;49.18
78717;BME280;68045;50.042;14.432;2023-08-07T13:08:30;97755.81;;;20.95;50.34
78717;BME280;68045;50.042;14.432;2023-08-07T13:12:35;97757.97;;;21.24;47.72
78717;BME280;68045;50.042;14.432;2023-08-07T13:16:37;97766.91;;;21.11;48.92
78717;BME280;68045;50.042;14.432;2023-08-07T13:20:38;97766.44;;;21.09;48.15
78717;BME280;68045;50.042;14.432;2023-08-07T13:24:39;97776.97;;;20.97;48.79
78717;BME280;68045;50.042;14.432;2023-08-07T13:28:40;97778.13;;;20.28;50.65
78717;BME280;68045;50.042;14.432;2023-08-07T13:32:40;97773.31;;;20.93;49.08
78717;BME280;68045;50.042;14.432;2023-08-07T13:36:41;97792.91;;;21.33;48.50
78717;BME280;68045;50.042;14.432;2023-08-07T13:40:42;97803.03;;;20.65;49.71
78717;BME280;68045;50.042;14.432;2023-08-07T13:44:45;97794.19;;;20.06;51.07
78717;BME280;68045;50.042;14.432;2023-08-07T13:48:46;97824.34;;;19.48;52.44
78717;BME280;68045;50.042;14.432;2023-08-07T13:52:46;97789.66;;;19.29;52.92
78717;BME280;68045;50.042;14.432;2023-08-07T13:56:47;97821.16;;;19.05;53.06
78717;BME280;68045;50.042;14.432;2023-08-07T14:00:48;97826.63;;;19.55;52.11
78717;BME280;68045;50.042;14.432;2023-08-07T14:04:49;97812.63;;;19.03;53.11
78717;BME280;68045;50.042;14.432;2023-08-07T14:08:50;97825.31;;;19.52;52.47
78717;BME280;68045;50.042;14.432;2023-08-07T14:12:51;97829.00;;;19.29;52.39
78717;BME280;68045;50.042;14.432;2023-08-07T14:16:52;97849.94;;;19.40;52.98
78717;BME280;68045;50.042;14.432;2023-08-07T14:20:55;97867.97;;;18.56;55.34
78717;BME280;68045;50.042;14.432;2023-08-07T14:24:55;97860.44;;;18.58;55.16
78717;BME280;68045;50.042;14.432;2023-08-07T14:28:56;97860.25;;;18.87;54.79
78717;BME280;68045;50.042;14.432;2023-08-07T14:32:57;97864.38;;;18.60;55.42
78717;BME280;68045;50.042;14.432;2023-08-07T14:36:58;97872.88;;;18.30;55.97
78717;BME280;68045;50.042;14.432;2023-08-07T14:40:59;97882.78;;;18.48;55.50
78717;BME280;68045;50.042;14.432;2023-08-07T14:45:00;97879.91;;;19.10;54.44
78717;BME280;68045;50.042;14.432;2023-08-07T14:49:01;97882.84;;;18.94;54.03
78717;BME280;68045;50.042;14.432;2023-08-07T14:53:03;97901.69;;;18.89;54.68
78717;BME280;68045;50.042;14.432;2023-08-07T14:57:03;97881.97;;;17.91;56.83
78717;BME280;68045;50.042;14.432;2023-08-07T15:01:04;97902.44;;;17.77;57.92
78717;BME280;68045;50.042;14.432;2023-08-07T15:05:06;97892.38;;;18.11;57.27
78717;BME280;68045;50.042;14.432;2023-08-07T15:09:06;97905.94;;;18.15;56.55
78717;BME280;68045;50.042;14.432;2023-08-07T15:13:07;97911.91;;;18.69;55.67
78717;BME280;68045;50.042;14.432;2023-08-07T15:17:08;97906.81;;;18.29;55.86
78717;BME280;68045;50.042;14.432;2023-08-07T15:21:09;97909.28;;;18.63;55.30
78717;BME280;68045;50.042;14.432;2023-08-07T15:25:11;97909.56;;;18.81;54.85
78717;BME280;68045;50.042;14.432;2023-08-07T15:29:13;97893.59;;;18.57;54.64
78717;BME280;68045;50.042;14.432;2023-08-07T15:33:15;97911.81;;;18.36;55.23
78717;BME280;68045;50.042;14.432;2023-08-07T15:37:16;97913.19;;;18.33;55.63
78717;BME280;68045;50.042;14.432;2023-08-07T15:41:17;97924.81;;;18.61;55.12
78717;BME280;68045;50.042;14.432;2023-08-07T15:45:18;97922.69;;;18.02;56.82
78717;BME280;68045;50.042;14.432;2023-08-07T15:49:19;97936.63;;;17.75;57.93
78717;BME280;68045;50.042;14.432;2023-08-07T15:53:20;97926.38;;;18.06;57.06
78717;BME280;68045;50.042;14.432;2023-08-07T15:57:21;97931.47;;;18.26;56.20
78717;BME280;68045;50.042;14.432;2023-08-07T16:01:22;97927.41;;;17.86;56.24
78717;BME280;68045;50.042;14.432;2023-08-07T16:05:22;97942.25;;;17.97;55.94
78717;BME280;68045;50.042;14.432;2023-08-07T16:09:24;97943.97;;;17.59;57.16
78717;BME280;68045;50.042;14.432;2023-08-07T16:13:24;97935.41;;;17.62;57.32
78717;BME280;68045;50.042;14.432;2023-08-07T16:17:25;97939.47;;;17.54;57.32
78717;BME280;68045;50.042;14.432;2023-08-07T16:21:26;97951.13;;;17.64;57.41
78717;BME280;68045;50.042;14.432;2023-08-07T16:25:27;97942.34;;;17.87;56.80
78717;BME280;68045;50.042;14.432;2023-08-07T16:29:28;97957.16;;;17.50;56.86
78717;BME280;68045;50.042;14.432;2023-08-07T16:33:29;97956.25;;;17.31;57.90
78717;BME280;68045;50.042;14.432;2023-08-07T16:37:31;97961.25;;;17.38;58.04
78717;BME280;68045;50.042;14.432;2023-08-07T16:41:32;97957.53;;;17.05;59.07
78717;BME280;68045;50.042;14.432;2023-08-07T16:45:32;97958.88;;;17.07;58.73
78717;BME280;68045;50.042;14.432;2023-08-07T16:49:34;97967.25;;;16.90;60.09
78717;BME280;68045;50.042;14.432;2023-08-07T16:53:35;97958.88;;;17.07;59.30
78717;BME280;68045;50.042;14.432;2023-08-07T16:57:36;97971.94;;;17.03;59.41
78717;BME280;68045;50.042;14.432;2023-08-07T17:01:37;97976.03;;;16.91;60.03
78717;BME280;68045;50.042;14.432;2023-08-07T17:05:38;97983.13;;;16.71;60.56
78717;BME280;68045;50.042;14.432;2023-08-07T17:09:38;97993.78;;;16.66;60.40
78717;BME280;68045;50.042;14.432;2023-08-07T17:13:39;97993.56;;;16.58;61.46
78717;BME280;68045;50.042;14.432;2023-08-07T17:17:40;97987.69;;;16.61;61.29
78717;BME280;68045;50.042;14.432;2023-08-07T17:21:41;97995.25;;;16.43;61.73
78717;BME280;68045;50.042;14.432;2023-08-07T17:25:42;97995.47;;;16.52;61.71
78717;BME280;68045;50.042;14.432;2023-08-07T17:29:43;98007.84;;;16.23;62.76
78717;BME280;68045;50.042;14.432;2023-08-07T17:33:43;98001.53;;;16.03;63.87
78717;BME280;68045;50.042;14.432;2023-08-07T17:37:44;98021.53;;;15.90;64.16
78717;BME280;68045;50.042;14.432;2023-08-07T17:41:45;98034.06;;;15.75;65.13
78717;BME280;68045;50.042;14.432;2023-08-07T17:45:48;97999.25;;;15.66;64.97
78717;BME280;68045;50.042;14.432;2023-08-07T17:49:49;98019.41;;;15.82;64.54
78717;BME280;68045;50.042;14.432;2023-08-07T17:53:49;98010.13;;;15.80;64.51
78717;BME280;68045;50.042;14.432;2023-08-07T17:57:54;98003.47;;;15.77;64.63
78717;BME280;68045;50.042;14.432;2023-08-07T18:01:56;98028.22;;;15.62;65.06
78717;BME280;68045;50.042;14.432;2023-08-07T18:05:57;98021.59;;;15.45;65.81
78717;BME280;68045;50.042;14.432;2023-08-07T18:09:58;98020.25;;;15.47;66.09
78717;BME280;68045;50.042;14.432;2023-08-07T18:13:59;98036.47;;;15.61;65.62
78717;BME280;68045;50.042;14.432;2023-08-07T18:18:00;98053.47;;;15.55;66.05
78717;BME280;68045;50.042;14.432;2023-08-07T18:22:01;98063.63;;;15.63;66.30
78717;BME280;68045;50.042;14.432;2023-08-07T18:26:02;98070.53;;;15.69;66.21
78717;BME280;68045;50.042;14.432;2023-08-07T18:30:03;98055.06;;;15.56;66.70
78717;BME280;68045;50.042;14.432;2023-08-07T18:34:04;98065.72;;;15.61;66.89
78717;BME280;68045;50.042;14.432;2023-08-07T18:38:05;98097.69;;;15.66;66.93
78717;BME280;68045;50.042;14.432;2023-08-07T18:42:06;98089.94;;;15.59;67.06
78717;BME280;68045;50.042;14.432;2023-08-07T18:46:07;98100.03;;;15.47;67.69
78717;BME280;68045;50.042;14.432;2023-08-07T18:50:08;98115.72;;;15.49;67.56
78717;BME280;68045;50.042;14.432;2023-08-07T18:54:09;98108.53;;;15.49;67.97
78717;BME280;68045;50.042;14.432;2023-08-07T18:58:10;98106.94;;;15.33;69.48
78717;BME280;68045;50.042;14.432;2023-08-07T19:02:11;98115.69;;;15.28;70.03
78717;BME280;68045;50.042;14.432;2023-08-07T19:06:12;98140.16;;;15.25;69.96
78717;BME280;68045;50.042;14.432;2023-08-07T19:10:13;98143.31;;;15.02;71.21
78717;BME280;68045;50.042;14.432;2023-08-07T19:14:14;98135.25;;;14.87;70.91
78717;BME280;68045;50.042;14.432;2023-08-07T19:18:15;98150.41;;;14.81;70.40
78717;BME280;68045;50.042;14.432;2023-08-07T19:22:16;98148.56;;;14.87;69.48
78717;BME280;68045;50.042;14.432;2023-08-07T19:26:17;98144.28;;;14.75;68.53
78717;BME280;68045;50.042;14.432;2023-08-07T19:30:17;98156.72;;;14.70;68.41
78717;BME280;68045;50.042;14.432;2023-08-07T19:34:19;98166.03;;;14.72;67.92
78717;BME280;68045;50.042;14.432;2023-08-07T19:38:19;98171.56;;;14.66;67.81
78717;BME280;68045;50.042;14.432;2023-08-07T19:42:20;98171.56;;;14.66;67.84
78717;BME280;68045;50.042;14.432;2023-08-07T19:46:21;98181.91;;;14.57;67.71
78717;BME280;68045;50.042;14.432;2023-08-07T19:50:24;98183.25;;;14.60;67.61
78717;BME280;68045;50.042;14.432;2023-08-07T19:54:25;98189.38;;;14.65;68.00
78717;BME280;68045;50.042;14.432;2023-08-07T19:58:26;98173.97;;;14.62;69.08
78717;BME280;68045;50.042;14.432;2023-08-07T20:02:27;98194.13;;;14.58;70.07
78717;BME280;68045;50.042;14.432;2023-08-07T20:06:28;98199.41;;;14.53;70.54
78717;BME280;68045;50.042;14.432;2023-08-07T20:10:28;98189.38;;;14.60;70.66
78717;BME280;68045;50.042;14.432;2023-08-07T20:14:29;98195.84;;;14.42;72.02
78717;BME280;68045;50.042;14.432;2023-08-07T20:18:30;98214.03;;;14.55;71.57
78717;BME280;68045;50.042;14.432;2023-08-07T20:22:31;98200.72;;;14.50;72.19
78717;BME280;68045;50.042;14.432;2023-08-07T20:26:32;98207.28;;;14.38;73.05
78717;BME280;68045;50.042;14.432;2023-08-07T20:30:35;98204.16;;;14.51;73.13
78717;BME280;68045;50.042;14.432;2023-08-07T20:34:36;98201.72;;;14.44;72.33
78717;BME280;68045;50.042;14.432;2023-08-07T20:38:37;98207.63;;;14.46;73.01
78717;BME280;68045;50.042;14.432;2023-08-07T20:42:38;98212.28;;;14.34;73.41
78717;BME280;68045;50.042;14.432;2023-08-07T20:46:39;98208.41;;;14.15;74.76
78717;BME280;68045;50.042;14.432;2023-08-07T20:50:40;98216.16;;;14.21;75.78
78717;BME280;68045;50.042;14.432;2023-08-07T20:54:40;98224.56;;;14.08;76.30
78717;BME280;68045;50.042;14.432;2023-08-07T20:58:41;98221.03;;;13.97;77.17
78717;BME280;68045;50.042;14.432;2023-08-07T21:02:43;98212.22;;;13.92;77.25
78717;BME280;68045;50.042;14.432;2023-08-07T21:06:44;98225.03;;;13.73;77.73
78717;BME280;68045;50.042;14.432;2023-08-07T21:10:47;98213.28;;;13.64;77.97
78717;BME280;68045;50.042;14.432;2023-08-07T21:14:47;98214.09;;;13.64;78.09
78717;BME280;68045;50.042;14.432;2023-08-07T21:18:48;98219.03;;;13.56;78.48